Time;durP1;ratioP1;P1;durP2;ratioP2;P2;SDS_P1;SDS_P2;PMS_P1;PMS_P2;Temp;Humidity;BMP_temperature;BMP_pressure;BME280_temperature;BME280_humidity;BME280_pressure;Samples;Min_cycle;Max_cycle;Signal;HPM_P1;HPM_P2
2023/03/19 00:02:01;;;;;;;1.42;0.50;;;13.70;99.90;;;;;;4805286;29;20031;-84
2023/03/19 00:04:27;;;;;;;1.60;0.40;;;13.60;99.90;;;;;;4789575;29;20038;-80
2023/03/19 00:06:53;;;;;;;2.90;0.40;;;13.60;99.90;;;;;;4804723;29;20039;-80
2023/03/19 00:09:20;;;;;;;1.10;0.30;;;13.40;99.90;;;;;;4788880;29;20502;-83
2023/03/19 00:11:47;;;;;;;1.13;0.40;;;13.40;99.90;;;;;;4783545;29;20527;-83
2023/03/19 00:14:13;;;;;;;2.80;0.32;;;13.40;99.90;;;;;;4761781;30;20047;-83
2023/03/19 00:16:39;;;;;;;1.30;0.20;;;13.40;99.90;;;;;;4759147;29;20118;-84
2023/03/19 00:19:05;;;;;;;1.20;0.30;;;13.40;99.90;;;;;;4785700;29;20035;-83
2023/03/19 00:21:31;;;;;;;1.55;0.25;;;13.50;99.90;;;;;;4786289;29;20088;-83
2023/03/19 00:24:00;;;;;;;1.30;0.30;;;13.50;99.90;;;;;;4787033;29;20042;-86
2023/03/19 00:26:28;;;;;;;3.50;0.73;;;13.50;99.90;;;;;;4778600;30;20067;-86
2023/03/19 00:28:54;;;;;;;1.08;0.25;;;13.60;99.90;;;;;;4784478;30;20473;-85
2023/03/19 00:31:20;;;;;;;1.15;0.30;;;13.60;99.90;;;;;;4786861;29;20059;-89
2023/03/19 00:33:46;;;;;;;2.25;0.20;;;13.60;99.90;;;;;;4785738;29;20518;-89
2023/03/19 00:36:12;;;;;;;1.15;0.38;;;13.70;99.90;;;;;;4787054;29;20069;-86
2023/03/19 00:38:37;;;;;;;0.68;0.20;;;13.80;99.90;;;;;;4787185;29;20073;-82
2023/03/19 00:41:04;;;;;;;0.88;0.17;;;13.80;99.90;;;;;;4786768;29;20036;-83
2023/03/19 00:43:31;;;;;;;0.88;0.20;;;13.80;99.90;;;;;;4789343;29;20146;-82
2023/03/19 00:45:57;;;;;;;1.10;0.38;;;13.80;99.90;;;;;;4760321;30;20035;-82
2023/03/19 00:48:23;;;;;;;2.15;0.25;;;13.90;99.90;;;;;;4776383;30;20141;-84
2023/03/19 00:50:49;;;;;;;1.75;0.60;;;13.90;99.90;;;;;;4794517;29;20154;-85
2023/03/19 00:53:15;;;;;;;0.77;0.40;;;13.90;99.90;;;;;;4776290;29;20437;-83
2023/03/19 00:55:40;;;;;;;1.08;0.45;;;13.80;99.90;;;;;;4792232;29;20035;-76
2023/03/19 00:58:06;;;;;;;2.10;0.60;;;13.80;99.90;;;;;;4807802;29;20123;-75
2023/03/19 01:00:33;;;;;;;0.77;0.35;;;13.80;99.90;;;;;;4791728;29;20039;-77
2023/03/19 01:02:59;;;;;;;1.55;0.52;;;13.80;99.90;;;;;;4784109;30;20042;-76
2023/03/19 01:05:25;;;;;;;3.92;0.65;;;13.80;99.90;;;;;;4773625;30;20079;-75
2023/03/19 01:07:50;;;;;;;1.40;0.52;;;13.80;99.90;;;;;;4788507;29;20434;-75
2023/03/19 01:10:24;;;;;;;2.00;0.60;;;13.80;99.90;;;;;;4789880;30;20040;-75
2023/03/19 01:12:50;;;;;;;1.00;0.40;;;13.80;99.90;;;;;;4789906;30;20062;-75
2023/03/19 01:15:16;;;;;;;2.17;0.60;;;13.90;99.90;;;;;;4789019;29;20081;-76
2023/03/19 01:17:42;;;;;;;2.63;0.55;;;13.90;99.90;;;;;;4789853;30;20031;-75
2023/03/19 01:20:12;;;;;;;1.50;0.68;;;13.90;99.90;;;;;;4788595;30;20492;-75
2023/03/19 01:22:41;;;;;;;1.33;0.50;;;13.90;99.90;;;;;;4789107;29;20117;-75
2023/03/19 01:25:08;;;;;;;1.65;0.32;;;13.90;99.90;;;;;;4787784;30;20130;-75
2023/03/19 01:27:34;;;;;;;1.90;0.55;;;14.00;99.90;;;;;;4788546;29;20052;-76
2023/03/19 01:30:00;;;;;;;1.13;0.52;;;13.90;99.90;;;;;;4787243;30;20036;-75
2023/03/19 01:32:26;;;;;;;1.67;0.40;;;14.00;99.90;;;;;;4787682;29;20138;-76
2023/03/19 01:34:52;;;;;;;0.98;0.40;;;14.00;99.90;;;;;;4789316;30;20038;-76
2023/03/19 01:37:19;;;;;;;0.85;0.40;;;14.00;99.90;;;;;;4772869;30;20096;-75
2023/03/19 01:39:45;;;;;;;0.85;0.43;;;14.00;99.90;;;;;;4789249;30;20071;-76
2023/03/19 01:42:11;;;;;;;1.10;0.40;;;14.00;99.90;;;;;;4789091;29;20131;-75
2023/03/19 01:44:38;;;;;;;1.58;0.40;;;14.10;99.90;;;;;;4773267;30;20047;-75
2023/03/19 01:47:10;;;;;;;1.02;0.40;;;14.00;99.90;;;;;;4772749;30;20050;-75
2023/03/19 01:49:36;;;;;;;1.38;0.30;;;14.00;99.90;;;;;;4787784;30;20039;-75
2023/03/19 01:52:04;;;;;;;1.88;0.50;;;14.00;99.90;;;;;;4788767;30;20035;-75
2023/03/19 01:54:32;;;;;;;1.77;0.50;;;14.00;99.90;;;;;;4772249;30;20027;-75
2023/03/19 01:57:02;;;;;;;1.98;0.40;;;14.00;99.90;;;;;;4772925;30;20049;-75
2023/03/19 01:59:35;;;;;;;1.25;0.40;;;14.00;99.90;;;;;;4788764;30;20035;-75
2023/03/19 02:02:28;;;;;;;1.13;0.40;;;14.00;99.90;;;;;;4787387;30;20378;-75
2023/03/19 02:04:59;;;;;;;1.33;0.40;;;14.00;99.90;;;;;;4788929;30;20042;-75
2023/03/19 02:07:26;;;;;;;1.00;0.40;;;14.00;99.90;;;;;;4788950;29;20043;-75
2023/03/19 02:09:52;;;;;;;2.15;0.63;;;14.00;99.90;;;;;;4787367;29;20104;-75
2023/03/19 02:12:18;;;;;;;1.25;0.50;;;13.90;99.90;;;;;;4788669;29;20058;-75
2023/03/19 02:14:44;;;;;;;2.20;0.60;;;13.90;99.90;;;;;;4787524;30;20333;-76
2023/03/19 02:17:10;;;;;;;1.52;0.75;;;13.90;99.90;;;;;;4788571;29;20181;-76
2023/03/19 02:19:47;;;;;;;1.35;0.40;;;13.90;99.90;;;;;;4772334;30;20107;-76
2023/03/19 02:22:15;;;;;;;1.67;0.40;;;13.90;99.90;;;;;;4771891;30;20127;-76
2023/03/19 02:24:52;;;;;;;2.00;0.40;;;13.90;99.90;;;;;;4787165;29;20031;-77
2023/03/19 02:27:18;;;;;;;1.60;0.60;;;13.80;99.90;;;;;;4786983;30;20189;-76
2023/03/19 02:29:44;;;;;;;1.92;0.70;;;13.80;99.90;;;;;;4787221;30;20063;-75
2023/03/19 02:32:10;;;;;;;2.05;0.70;;;13.70;99.90;;;;;;4787121;30;20059;-76
2023/03/19 02:34:41;;;;;;;1.95;0.60;;;13.60;99.90;;;;;;4786889;29;20039;-75
2023/03/19 02:37:13;;;;;;;1.60;0.70;;;13.70;99.90;;;;;;4788815;29;20038;-76
2023/03/19 02:39:49;;;;;;;2.42;0.80;;;13.70;99.90;;;;;;4788012;30;20032;-76
2023/03/19 02:42:17;;;;;;;3.33;1.10;;;13.60;99.90;;;;;;4788151;30;20412;-77
2023/03/19 02:44:43;;;;;;;3.75;0.70;;;13.60;99.90;;;;;;4789241;30;20143;-76
2023/03/19 02:47:08;;;;;;;3.10;0.60;;;13.50;99.90;;;;;;4788806;30;20477;-76
2023/03/19 02:49:34;;;;;;;3.05;0.90;;;13.60;99.90;;;;;;4787182;29;20568;-76
2023/03/19 02:52:00;;;;;;;1.35;0.77;;;13.50;99.90;;;;;;4771535;30;20066;-76
2023/03/19 02:54:26;;;;;;;1.98;0.90;;;13.50;99.90;;;;;;4788081;29;20069;-76
2023/03/19 02:56:52;;;;;;;4.28;0.80;;;13.60;99.90;;;;;;4787700;30;20035;-76
2023/03/19 02:59:18;;;;;;;2.63;0.65;;;13.50;99.90;;;;;;4771837;30;20477;-77
2023/03/19 03:01:43;;;;;;;1.75;0.80;;;13.60;99.90;;;;;;4788415;30;20065;-76
2023/03/19 03:04:09;;;;;;;2.78;0.90;;;13.50;99.90;;;;;;4772026;30;20449;-76
2023/03/19 03:06:36;;;;;;;1.38;0.70;;;13.50;99.90;;;;;;4771064;30;20505;-76
2023/03/19 03:09:02;;;;;;;1.65;1.02;;;13.50;99.90;;;;;;4786848;30;20396;-76
2023/03/19 03:11:28;;;;;;;1.25;0.77;;;13.60;99.90;;;;;;4787596;29;20038;-76
2023/03/19 03:13:53;;;;;;;2.22;0.90;;;13.60;99.90;;;;;;4787580;30;20040;-77
2023/03/19 03:16:20;;;;;;;2.10;0.98;;;13.60;99.90;;;;;;4771712;30;20126;-76
2023/03/19 03:18:46;;;;;;;2.75;0.85;;;13.60;99.90;;;;;;4787970;30;20070;-76
2023/03/19 03:21:11;;;;;;;3.33;1.00;;;13.60;99.90;;;;;;4770624;30;20089;-76
2023/03/19 03:23:37;;;;;;;2.88;1.10;;;13.60;99.90;;;;;;4771674;30;20036;-76
2023/03/19 03:26:02;;;;;;;1.65;0.93;;;13.50;99.90;;;;;;4756200;30;20515;-77
2023/03/19 03:28:28;;;;;;;3.22;1.25;;;13.50;99.90;;;;;;4787804;29;20051;-76
2023/03/19 03:31:01;;;;;;;3.63;0.90;;;13.50;99.90;;;;;;4787312;30;20275;-76
2023/03/19 03:33:27;;;;;;;2.83;1.05;;;13.50;99.90;;;;;;4787261;29;20555;-75
2023/03/19 03:35:53;;;;;;;3.13;0.98;;;13.60;99.90;;;;;;4787506;30;20237;-75
2023/03/19 03:38:18;;;;;;;2.55;1.00;;;13.60;99.90;;;;;;4786884;30;20050;-75
2023/03/19 03:40:44;;;;;;;2.08;1.23;;;13.60;99.90;;;;;;4787571;30;20126;-75
2023/03/19 03:43:10;;;;;;;3.42;1.63;;;13.50;99.90;;;;;;4787330;30;20081;-75
2023/03/19 03:45:36;;;;;;;1.92;1.30;;;13.50;99.90;;;;;;4771219;30;20096;-75
2023/03/19 03:48:02;;;;;;;3.65;1.70;;;13.50;99.90;;;;;;4771127;30;20462;-75
2023/03/19 03:50:27;;;;;;;1.23;0.90;;;13.50;99.90;;;;;;4787325;29;20122;-75
2023/03/19 03:52:53;;;;;;;2.70;1.48;;;13.50;99.90;;;;;;4786872;30;20395;-75
2023/03/19 03:55:19;;;;;;;2.63;1.20;;;13.50;99.90;;;;;;4786156;29;20035;-76
2023/03/19 03:57:45;;;;;;;2.58;1.52;;;13.50;99.90;;;;;;4787256;30;20389;-77
2023/03/19 04:00:11;;;;;;;2.70;1.40;;;13.60;99.90;;;;;;4756097;30;20063;-77
2023/03/19 04:02:37;;;;;;;2.35;1.35;;;13.60;99.90;;;;;;4787214;30;20485;-76
2023/03/19 04:05:02;;;;;;;4.25;1.70;;;13.60;99.90;;;;;;4785550;29;20042;-77
2023/03/19 04:07:28;;;;;;;3.42;1.60;;;13.70;99.90;;;;;;4771074;30;20042;-77
2023/03/19 04:09:56;;;;;;;2.78;1.60;;;13.70;99.90;;;;;;4786684;29;20118;-78
2023/03/19 04:12:22;;;;;;;3.60;1.65;;;13.70;99.90;;;;;;4786775;30;20038;-77
2023/03/19 04:14:47;;;;;;;3.85;1.55;;;13.70;99.90;;;;;;4756275;30;20043;-77
2023/03/19 04:17:13;;;;;;;2.90;1.50;;;13.70;99.90;;;;;;4787710;29;20473;-77
2023/03/19 04:19:38;;;;;;;3.75;1.50;;;13.70;99.90;;;;;;4790829;30;20083;-76
2023/03/19 04:22:06;;;;;;;3.85;1.90;;;13.70;99.90;;;;;;4773887;30;20039;-76
2023/03/19 04:24:32;;;;;;;2.95;1.80;;;13.70;99.90;;;;;;4790573;30;20078;-76
2023/03/19 04:26:57;;;;;;;2.88;1.95;;;13.70;99.90;;;;;;4789796;29;20095;-78
2023/03/19 04:29:23;;;;;;;3.65;2.00;;;13.80;99.90;;;;;;4790664;30;20495;-78
2023/03/19 04:31:49;;;;;;;4.28;1.90;;;13.80;99.90;;;;;;4790434;29;20070;-77
2023/03/19 04:34:16;;;;;;;2.92;1.75;;;13.90;99.90;;;;;;4775573;30;20068;-77
2023/03/19 04:36:42;;;;;;;2.65;2.05;;;13.80;99.90;;;;;;4792265;30;20035;-77
2023/03/19 04:39:08;;;;;;;4.35;2.28;;;13.90;99.90;;;;;;4775227;30;20065;-76
2023/03/19 04:41:33;;;;;;;2.85;2.20;;;13.90;99.90;;;;;;4789264;30;20093;-77
2023/03/19 04:43:59;;;;;;;3.78;2.30;;;13.90;99.90;;;;;;4790081;30;20133;-77
2023/03/19 04:46:25;;;;;;;5.32;2.63;;;13.90;99.90;;;;;;4788892;29;20075;-78
2023/03/19 04:48:51;;;;;;;3.28;2.70;;;13.90;99.90;;;;;;4789988;30;20493;-78
2023/03/19 04:51:17;;;;;;;3.25;2.40;;;13.90;99.90;;;;;;4788359;30;20031;-77
2023/03/19 04:53:43;;;;;;;3.88;2.67;;;13.80;99.90;;;;;;4773865;30;20092;-76
2023/03/19 04:56:09;;;;;;;3.63;2.42;;;13.80;99.90;;;;;;4788494;29;20554;-76
2023/03/19 04:58:34;;;;;;;3.80;2.42;;;13.80;99.90;;;;;;4773773;30;20039;-76
2023/03/19 05:01:00;;;;;;;3.55;2.72;;;13.90;99.90;;;;;;4789827;30;20169;-76
2023/03/19 05:03:26;;;;;;;3.10;2.80;;;13.90;99.90;;;;;;4773930;30;20040;-75
2023/03/19 05:05:53;;;;;;;5.05;3.22;;;13.80;99.90;;;;;;4773756;30;20465;-76
2023/03/19 05:08:19;;;;;;;4.53;3.25;;;13.90;99.90;;;;;;4788355;30;20035;-75
2023/03/19 05:10:46;;;;;;;6.75;4.22;;;13.80;99.90;;;;;;4789492;29;20067;-75
2023/03/19 05:13:11;;;;;;;4.63;3.60;;;13.80;99.90;;;;;;4789612;30;20040;-75
2023/03/19 05:15:37;;;;;;;4.90;3.97;;;13.80;99.90;;;;;;4789866;30;20050;-76
2023/03/19 05:18:03;;;;;;;5.00;4.10;;;13.80;99.90;;;;;;4789387;30;20364;-75
2023/03/19 05:20:29;;;;;;;5.60;4.78;;;13.80;99.90;;;;;;4788245;30;20434;-76
2023/03/19 05:22:55;;;;;;;7.55;4.88;;;13.70;99.90;;;;;;4772904;30;20118;-76
2023/03/19 05:25:20;;;;;;;4.97;4.43;;;13.70;99.90;;;;;;4773253;30;20043;-77
2023/03/19 05:27:46;;;;;;;6.10;4.53;;;13.70;99.90;;;;;;4788975;30;20055;-76
2023/03/19 05:30:12;;;;;;;6.63;5.60;;;13.70;99.90;;;;;;4788897;29;20360;-77
2023/03/19 05:32:39;;;;;;;8.95;6.20;;;13.70;99.90;;;;;;4788354;30;20133;-75
2023/03/19 05:35:05;;;;;;;8.20;6.47;;;13.70;99.90;;;;;;4773486;30;20031;-75
2023/03/19 05:37:31;;;;;;;8.07;5.68;;;13.60;99.90;;;;;;4773189;30;20130;-75
2023/03/19 05:39:56;;;;;;;7.35;5.80;;;13.60;99.90;;;;;;4772709;30;20115;-76
2023/03/19 05:42:22;;;;;;;9.32;6.55;;;13.60;99.90;;;;;;4789262;30;20045;-75
2023/03/19 05:44:48;;;;;;;11.65;8.18;;;13.50;99.90;;;;;;4789087;30;20032;-75
2023/03/19 05:47:13;;;;;;;9.63;7.97;;;13.50;99.90;;;;;;4788952;29;20413;-75
2023/03/19 05:49:39;;;;;;;8.93;7.93;;;13.50;99.90;;;;;;4772673;30;20494;-76
2023/03/19 05:52:05;;;;;;;9.32;8.30;;;13.40;99.90;;;;;;4788533;30;20040;-76
2023/03/19 05:54:30;;;;;;;9.15;8.23;;;13.40;99.90;;;;;;4772747;30;20272;-76
2023/03/19 05:56:56;;;;;;;13.38;10.63;;;13.30;99.90;;;;;;4772701;30;20043;-77
2023/03/19 05:59:22;;;;;;;14.90;11.25;;;13.30;99.90;;;;;;4789024;30;20036;-76
2023/03/19 06:01:47;;;;;;;13.60;10.85;;;13.20;99.90;;;;;;4787814;30;20451;-75
2023/03/19 06:04:13;;;;;;;14.30;11.10;;;13.10;99.90;;;;;;4789343;30;20465;-75
2023/03/19 06:06:39;;;;;;;14.05;11.43;;;13.10;99.90;;;;;;4787615;29;20044;-75
2023/03/19 06:09:04;;;;;;;16.67;11.95;;;13.10;99.90;;;;;;4788530;29;20088;-75
2023/03/19 06:11:31;;;;;;;15.77;11.85;;;13.00;99.90;;;;;;4788841;30;20032;-76
2023/03/19 06:13:56;;;;;;;15.45;12.43;;;13.10;99.90;;;;;;4772751;30;20477;-76
2023/03/19 06:16:22;;;;;;;12.88;11.48;;;13.10;99.90;;;;;;4789278;30;20050;-75
2023/03/19 06:18:47;;;;;;;15.38;11.75;;;13.10;99.90;;;;;;4788448;30;20430;-76
2023/03/19 06:21:13;;;;;;;14.85;12.63;;;13.00;99.90;;;;;;4773298;30;20043;-76
2023/03/19 06:23:39;;;;;;;16.52;12.90;;;13.00;99.90;;;;;;4787626;29;20397;-76
2023/03/19 06:26:05;;;;;;;15.35;12.52;;;12.90;99.90;;;;;;4789944;29;20047;-75
2023/03/19 06:28:31;;;;;;;16.27;13.27;;;12.90;99.90;;;;;;4788817;30;20120;-75
2023/03/19 06:30:57;;;;;;;17.77;12.98;;;12.90;99.90;;;;;;4789040;29;20036;-75
2023/03/19 06:33:26;;;;;;;13.98;11.35;;;12.90;99.90;;;;;;4788773;30;20173;-75
2023/03/19 06:35:52;;;;;;;15.25;12.13;;;12.90;99.90;;;;;;4788202;29;20043;-75
2023/03/19 06:38:17;;;;;;;15.63;12.30;;;12.90;99.90;;;;;;4788089;30;20480;-76
2023/03/19 06:40:43;;;;;;;15.15;11.48;;;12.90;99.90;;;;;;4772050;30;20441;-75
2023/03/19 06:43:09;;;;;;;15.52;12.23;;;12.90;99.90;;;;;;4787010;30;20035;-75
2023/03/19 06:45:35;;;;;;;14.98;13.35;;;12.90;99.90;;;;;;4787885;30;20051;-75
2023/03/19 06:48:00;;;;;;;15.88;13.52;;;12.90;99.90;;;;;;4772359;30;20035;-75
2023/03/19 06:50:26;;;;;;;17.23;13.45;;;12.90;99.90;;;;;;4772008;30;20035;-75
2023/03/19 06:52:52;;;;;;;16.48;12.98;;;12.80;99.90;;;;;;4787731;30;20093;-75
2023/03/19 06:55:19;;;;;;;15.50;12.68;;;12.80;99.90;;;;;;4772048;30;20112;-75
2023/03/19 06:57:49;;;;;;;16.25;13.63;;;12.90;99.90;;;;;;4787991;30;20035;-76
2023/03/19 07:00:15;;;;;;;17.05;13.00;;;12.90;99.90;;;;;;4788119;30;20031;-75
2023/03/19 07:02:41;;;;;;;18.30;14.95;;;12.80;99.90;;;;;;4787604;30;20039;-75
2023/03/19 07:05:07;;;;;;;18.15;15.13;;;12.80;99.90;;;;;;4787280;30;20118;-76
2023/03/19 07:07:33;;;;;;;16.73;13.38;;;12.70;99.90;;;;;;4785621;30;20073;-76
2023/03/19 07:09:59;;;;;;;18.55;13.80;;;12.70;99.90;;;;;;4771367;30;20062;-76
2023/03/19 07:12:28;;;;;;;14.85;12.65;;;12.70;99.90;;;;;;4787933;30;20489;-76
2023/03/19 07:14:57;;;;;;;15.20;12.23;;;12.80;99.90;;;;;;4787675;30;20039;-76
2023/03/19 07:17:24;;;;;;;14.43;12.55;;;12.80;99.90;;;;;;4771854;30;20043;-76
2023/03/19 07:19:50;;;;;;;15.63;12.25;;;12.80;99.90;;;;;;4771158;30;20028;-76
2023/03/19 07:22:16;;;;;;;16.33;11.38;;;12.80;99.90;;;;;;4770534;30;20403;-76
2023/03/19 07:24:42;;;;;;;12.90;10.52;;;12.70;99.90;;;;;;4787340;30;20130;-76
2023/03/19 07:27:08;;;;;;;13.98;11.45;;;12.80;99.90;;;;;;4787573;30;20070;-76
2023/03/19 07:29:33;;;;;;;16.20;12.63;;;12.80;99.90;;;;;;4771102;30;20523;-76
2023/03/19 07:31:59;;;;;;;13.48;10.35;;;12.80;99.90;;;;;;4787936;30;20063;-76
2023/03/19 07:34:25;;;;;;;10.32;8.35;;;12.80;99.90;;;;;;4786087;29;20419;-75
2023/03/19 07:36:51;;;;;;;9.80;7.88;;;12.90;99.90;;;;;;4785947;30;20092;-76
2023/03/19 07:39:18;;;;;;;10.82;7.82;;;12.90;99.90;;;;;;4756808;30;20473;-75
2023/03/19 07:41:46;;;;;;;8.88;6.53;;;13.00;99.90;;;;;;4786084;29;20043;-76
2023/03/19 07:44:12;;;;;;;12.23;6.75;;;13.00;99.90;;;;;;4787271;29;20024;-75
2023/03/19 07:46:37;;;;;;;9.00;7.40;;;12.90;99.90;;;;;;4771147;30;20054;-75
2023/03/19 07:49:03;;;;;;;10.15;7.70;;;12.90;99.90;;;;;;4786423;29;20135;-76
2023/03/19 07:51:28;;;;;;;15.15;10.20;;;12.80;99.90;;;;;;4786918;29;20039;-76
2023/03/19 07:53:54;;;;;;;12.88;9.68;;;12.70;99.90;;;;;;4762124;29;20035;-76
2023/03/19 07:56:20;;;;;;;11.95;8.93;;;12.70;99.90;;;;;;4793238;30;20039;-76
2023/03/19 07:58:45;;;;;;;14.25;9.25;;;12.70;99.90;;;;;;4776762;30;20051;-76
2023/03/19 08:01:11;;;;;;;11.85;9.18;;;12.60;99.90;;;;;;4793323;30;20042;-76
2023/03/19 08:03:37;;;;;;;13.98;10.27;;;12.60;99.90;;;;;;4777274;30;20046;-76
2023/03/19 08:06:04;;;;;;;14.25;10.10;;;12.60;99.90;;;;;;4793244;29;20087;-76
2023/03/19 08:08:30;;;;;;;14.38;9.73;;;12.60;99.90;;;;;;4792940;30;20047;-76
2023/03/19 08:10:56;;;;;;;10.80;8.70;;;12.50;99.90;;;;;;4793282;29;20047;-76
2023/03/19 08:13:22;;;;;;;12.70;8.50;;;12.60;99.90;;;;;;4793695;29;20042;-76
2023/03/19 08:15:49;;;;;;;13.38;9.38;;;12.60;99.90;;;;;;4793370;30;20409;-77
2023/03/19 08:18:15;;;;;;;10.98;8.35;;;12.80;99.90;;;;;;4778436;30;20069;-76
2023/03/19 08:20:41;;;;;;;10.68;8.65;;;12.80;99.90;;;;;;4795131;30;20051;-76
2023/03/19 08:23:07;;;;;;;13.40;9.50;;;12.80;99.90;;;;;;4779920;30;20142;-76
2023/03/19 08:25:32;;;;;;;11.90;7.85;;;12.80;99.90;;;;;;4777354;30;20063;-76
2023/03/19 08:28:01;;;;;;;12.60;9.15;;;12.70;99.90;;;;;;4792667;30;20074;-76
2023/03/19 08:30:26;;;;;;;12.82;9.25;;;12.80;99.90;;;;;;4793211;30;20039;-76
2023/03/19 08:32:52;;;;;;;15.25;9.48;;;12.70;99.90;;;;;;4792871;29;20105;-74
2023/03/19 08:35:18;;;;;;;12.93;9.90;;;12.70;99.90;;;;;;4788984;29;20035;-77
2023/03/19 08:37:43;;;;;;;13.82;9.50;;;12.70;99.90;;;;;;4789399;30;20036;-74
2023/03/19 08:40:10;;;;;;;12.63;9.82;;;12.70;99.90;;;;;;4792085;30;20043;-76
2023/03/19 08:42:40;;;;;;;14.02;9.60;;;12.80;99.90;;;;;;4793030;29;20039;-76
2023/03/19 08:45:07;;;;;;;13.63;8.98;;;12.90;99.90;;;;;;4791723;29;20481;-76
2023/03/19 08:47:33;;;;;;;15.90;9.57;;;12.90;99.90;;;;;;4793075;30;20046;-76
2023/03/19 08:49:58;;;;;;;12.80;8.77;;;12.90;99.90;;;;;;4791206;29;20031;-76
2023/03/19 08:52:24;;;;;;;17.13;9.50;;;12.90;99.90;;;;;;4776474;30;20056;-77
2023/03/19 08:54:50;;;;;;;15.25;10.07;;;12.90;99.90;;;;;;4776882;30;20392;-77
2023/03/19 08:57:15;;;;;;;15.20;9.57;;;12.90;99.90;;;;;;4792700;29;20043;-77
2023/03/19 08:59:41;;;;;;;15.70;11.48;;;12.90;99.90;;;;;;4761616;30;20032;-76
2023/03/19 09:02:09;;;;;;;12.27;10.60;;;13.00;99.90;;;;;;4793092;30;20071;-76
2023/03/19 09:04:37;;;;;;;13.50;10.85;;;12.90;99.90;;;;;;4789535;29;20130;-77
2023/03/19 09:07:04;;;;;;;21.40;15.35;;;12.80;99.90;;;;;;4773933;30;20047;-76
2023/03/19 09:09:29;;;;;;;19.25;14.57;;;12.90;99.90;;;;;;4773578;30;20456;-76
2023/03/19 09:11:55;;;;;;;18.13;14.80;;;12.90;99.90;;;;;;4789908;29;20173;-75
2023/03/19 09:14:21;;;;;;;16.52;14.18;;;12.90;99.90;;;;;;4772985;30;20039;-76
2023/03/19 09:16:47;;;;;;;19.98;14.57;;;12.90;99.90;;;;;;4789572;29;20396;-77
2023/03/19 09:19:13;;;;;;;19.35;14.05;;;13.00;99.90;;;;;;4788385;30;20043;-79
2023/03/19 09:21:39;;;;;;;10.60;8.70;;;13.10;99.90;;;;;;4773499;30;20073;-81
2023/03/19 09:24:05;;;;;;;13.85;11.88;;;13.30;99.90;;;;;;4773598;30;20405;-81
2023/03/19 09:26:31;;;;;;;16.63;11.15;;;13.70;99.90;;;;;;4772817;30;20039;-79
2023/03/19 09:28:57;;;;;;;13.57;10.20;;;13.90;99.90;;;;;;4773036;30;20089;-80
2023/03/19 09:31:23;;;;;;;18.35;13.77;;;14.20;99.90;;;;;;4789471;30;20070;-79
2023/03/19 09:33:49;;;;;;;17.75;12.98;;;14.50;99.90;;;;;;4773229;30;20043;-80
2023/03/19 09:36:15;;;;;;;13.60;12.15;;;14.60;99.90;;;;;;4789407;29;20192;-79
2023/03/19 09:38:41;;;;;;;16.38;12.25;;;14.70;99.90;;;;;;4789425;29;20115;-82
2023/03/19 09:41:10;;;;;;;14.48;12.07;;;15.00;99.90;;;;;;4789798;29;20051;-80
2023/03/19 09:43:40;;;;;;;14.45;12.55;;;15.10;99.90;;;;;;4789100;30;20099;-79
2023/03/19 09:46:16;;;;;;;13.85;11.77;;;15.20;99.90;;;;;;4787546;29;20451;-80
2023/03/19 09:48:55;;;;;;;15.77;12.85;;;15.40;99.90;;;;;;4772784;30;20035;-80
2023/03/19 09:51:29;;;;;;;15.68;12.10;;;15.50;99.70;;;;;;4788611;30;20023;-79
2023/03/19 09:54:05;;;;;;;14.30;12.40;;;15.50;99.10;;;;;;4772498;30;20046;-78
2023/03/19 09:56:32;;;;;;;14.82;9.95;;;15.50;99.40;;;;;;4787422;29;20035;-79
2023/03/19 09:59:04;;;;;;;12.13;10.40;;;15.70;99.50;;;;;;4789102;30;20043;-78
2023/03/19 10:01:39;;;;;;;11.07;9.85;;;16.00;99.40;;;;;;4772204;30;20512;-76
2023/03/19 10:04:31;;;;;;;12.07;10.07;;;16.20;99.00;;;;;;4786166;30;20097;-80
2023/03/19 10:07:07;;;;;;;11.93;9.38;;;16.50;98.70;;;;;;4771846;30;20459;-81
2023/03/19 10:09:41;;;;;;;11.13;9.75;;;16.70;97.90;;;;;;4786975;30;20480;-81
2023/03/19 10:12:42;;;;;;;11.57;9.77;;;16.70;97.50;;;;;;4789444;30;20035;-82
2023/03/19 10:15:31;;;;;;;18.08;11.60;;;16.70;97.00;;;;;;4742084;29;20448;-80
2023/03/19 10:18:05;;;;;;;14.15;10.18;;;16.60;96.40;;;;;;4786980;30;20148;-80
2023/03/19 10:20:34;;;;;;;11.15;9.55;;;16.50;96.90;;;;;;4787370;30;20027;-82
2023/03/19 10:23:05;;;;;;;12.43;9.48;;;16.40;97.00;;;;;;4770928;30;20129;-80
2023/03/19 10:25:32;;;;;;;10.70;8.60;;;16.40;97.10;;;;;;4788080;30;20508;-82
2023/03/19 10:28:10;;;;;;;14.85;10.68;;;16.40;97.10;;;;;;4768024;30;20090;-83
2023/03/19 10:30:38;;;;;;;12.15;9.77;;;16.40;97.00;;;;;;4767945;30;20048;-83
2023/03/19 10:33:25;;;;;;;13.20;9.85;;;16.40;96.80;;;;;;4754253;30;20083;-83
2023/03/19 10:36:09;;;;;;;11.65;8.98;;;16.40;97.00;;;;;;4771184;30;20047;-82
2023/03/19 10:38:42;;;;;;;15.35;12.38;;;16.50;97.20;;;;;;4784233;30;20044;-74
2023/03/19 10:41:33;;;;;;;17.15;13.05;;;16.50;97.00;;;;;;4764654;30;20036;-74
2023/03/19 10:44:05;;;;;;;17.20;14.18;;;16.40;96.50;;;;;;4752238;30;20033;-74
2023/03/19 10:46:39;;;;;;;16.38;14.68;;;16.20;96.70;;;;;;4752366;30;20040;-73
2023/03/19 10:49:10;;;;;;;21.30;16.08;;;16.00;96.80;;;;;;4752525;30;20060;-75
2023/03/19 10:51:37;;;;;;;16.10;14.40;;;15.90;97.20;;;;;;4750899;30;20427;-74
2023/03/19 10:54:25;;;;;;;18.77;15.82;;;15.90;97.60;;;;;;4764917;30;20044;-73
2023/03/19 10:56:54;;;;;;;19.13;17.02;;;16.00;97.90;;;;;;4752172;30;20032;-74
2023/03/19 10:59:23;;;;;;;18.60;16.67;;;16.10;98.00;;;;;;4752150;30;20379;-77
2023/03/19 11:01:54;;;;;;;18.92;14.25;;;16.00;97.60;;;;;;4765799;30;20035;-74
2023/03/19 11:04:21;;;;;;;20.85;17.80;;;16.10;97.90;;;;;;4769757;30;20032;-75
2023/03/19 11:06:52;;;;;;;20.52;18.25;;;16.30;97.80;;;;;;4769452;30;20050;-75
2023/03/19 11:09:43;;;;;;;23.73;17.73;;;16.40;97.70;;;;;;4769536;30;20051;-75
2023/03/19 11:12:20;;;;;;;20.60;17.65;;;16.50;97.10;;;;;;4769632;30;20353;-75
2023/03/19 11:14:51;;;;;;;21.08;16.52;;;16.60;97.30;;;;;;4769622;30;20443;-76
2023/03/19 11:17:37;;;;;;;20.30;15.95;;;16.60;96.70;;;;;;4768054;30;20054;-75
2023/03/19 11:20:18;;;;;;;20.25;15.43;;;16.70;96.60;;;;;;4769158;30;20036;-75
2023/03/19 11:22:45;;;;;;;19.65;14.35;;;16.70;96.70;;;;;;4769356;30;20035;-76
2023/03/19 11:25:28;;;;;;;21.48;17.20;;;16.90;96.30;;;;;;4768186;30;20069;-75
2023/03/19 11:28:14;;;;;;;19.58;16.08;;;17.00;96.00;;;;;;4767375;30;20055;-75
2023/03/19 11:30:43;;;;;;;22.50;15.77;;;17.10;95.90;;;;;;4769889;30;20430;-75
2023/03/19 11:33:53;;;;;;;24.42;15.90;;;17.10;95.50;;;;;;4769311;30;20031;-75
2023/03/19 11:36:25;;;;;;;19.70;14.88;;;17.30;95.60;;;;;;4767421;30;20060;-75
2023/03/19 11:39:13;;;;;;;16.25;13.38;;;17.40;95.60;;;;;;4769218;30;20043;-75
2023/03/19 11:41:54;;;;;;;18.25;13.80;;;17.60;95.30;;;;;;4769184;30;20404;-75
2023/03/19 11:44:39;;;;;;;18.73;13.15;;;17.70;94.70;;;;;;4768293;30;20492;-75
2023/03/19 11:47:36;;;;;;;19.05;13.57;;;17.70;94.70;;;;;;4767779;30;20047;-76
2023/03/19 11:50:17;;;;;;;19.45;14.05;;;17.40;94.20;;;;;;4782618;30;20032;-76
2023/03/19 11:53:04;;;;;;;19.38;14.48;;;17.20;94.40;;;;;;4768752;30;20031;-75
2023/03/19 11:55:38;;;;;;;20.48;14.90;;;17.10;95.20;;;;;;4769022;30;20063;-76
2023/03/19 11:58:19;;;;;;;22.05;15.68;;;17.00;95.50;;;;;;4783135;29;20032;-74
2023/03/19 12:00:49;;;;;;;19.85;14.90;;;16.90;95.20;;;;;;4769991;30;20042;-76
2023/03/19 12:03:21;;;;;;;18.23;14.73;;;16.90;95.70;;;;;;4772088;30;20096;-76
2023/03/19 12:06:09;;;;;;;23.05;16.58;;;16.80;96.00;;;;;;4769734;30;20529;-76
2023/03/19 12:09:12;;;;;;;22.73;16.38;;;16.70;95.80;;;;;;4768205;30;20105;-75
2023/03/19 12:11:48;;;;;;;28.92;17.25;;;16.30;95.90;;;;;;4769207;30;20043;-78
2023/03/19 12:14:47;;;;;;;30.35;16.77;;;16.10;96.70;;;;;;4769262;30;20043;-76
2023/03/19 12:17:18;;;;;;;26.05;15.00;;;15.90;97.10;;;;;;4769337;30;20032;-75
2023/03/19 12:20:25;;;;;;;31.48;16.70;;;15.70;97.60;;;;;;4767626;30;20040;-77
2023/03/19 12:23:09;;;;;;;25.75;16.95;;;15.50;97.90;;;;;;4761724;30;20055;-74
2023/03/19 12:25:55;;;;;;;26.05;15.07;;;15.30;98.30;;;;;;4768773;30;20048;-76
2023/03/19 12:28:32;;;;;;;24.50;14.27;;;15.20;98.80;;;;;;4767533;30;20051;-76
2023/03/19 12:30:58;;;;;;;25.55;14.93;;;15.10;99.20;;;;;;4767766;30;20035;-74
2023/03/19 12:33:31;;;;;;;26.90;15.25;;;15.10;99.20;;;;;;4768960;30;20028;-77
2023/03/19 12:35:57;;;;;;;;;;;15.10;99.60;;;;;;4769297;30;20397;-79
2023/03/19 12:38:48;;;;;;;19.17;12.93;;;15.30;99.90;;;;;;4769590;30;19990;-78
2023/03/19 12:41:21;;;;;;;18.27;11.63;;;15.60;99.40;;;;;;4772311;30;20059;-80
2023/03/19 12:44:18;;;;;;;18.58;11.65;;;15.80;99.10;;;;;;4771759;30;20090;-79
2023/03/19 12:46:49;;;;;;;19.42;12.80;;;16.20;98.70;;;;;;4785840;30;20568;-80
2023/03/19 12:49:53;;;;;;;46.97;25.45;;;16.50;98.20;;;;;;4784532;30;20432;-81